Time;durP1;ratioP1;P1;durP2;ratioP2;P2;SDS_P1;SDS_P2;PMS_P1;PMS_P2;Temp;Humidity;BMP_temperature;BMP_pressure;BME280_temperature;BME280_humidity;BME280_pressure;Samples;Min_cycle;Max_cycle;Signal;HPM_P1;HPM_P2
2023/03/20 00:00:10;;;;;;;24.10;23.10;;;22.40;56.20;;;;;;5011944;28;20457;-54
2023/03/20 00:02:37;;;;;;;23.90;22.80;;;22.40;56.20;;;;;;5011792;28;20461;-55
2023/03/20 00:05:17;;;;;;;24.33;23.23;;;22.40;56.20;;;;;;5011593;28;20860;-56
2023/03/20 00:07:44;;;;;;;23.47;22.47;;;22.40;56.20;;;;;;4992189;28;20577;-56
2023/03/20 00:10:13;;;;;;;22.80;21.90;;;22.40;56.10;;;;;;4992191;28;20482;-57
2023/03/20 00:12:40;;;;;;;22.40;21.40;;;22.40;56.20;;;;;;4995607;28;20496;-56
2023/03/20 00:15:34;;;;;;;23.80;22.80;;;22.30;56.10;;;;;;4996152;28;20477;-58
2023/03/20 00:18:01;;;;;;;24.27;23.23;;;22.30;56.10;;;;;;4995777;28;20455;-57
2023/03/20 00:20:28;;;;;;;23.73;22.70;;;22.30;56.10;;;;;;4996201;28;20541;-57
2023/03/20 00:22:55;;;;;;;22.97;22.03;;;22.30;56.10;;;;;;4996120;28;20539;-56
2023/03/20 00:25:25;;;;;;;23.40;22.50;;;22.30;56.10;;;;;;4997361;28;21047;-55
2023/03/20 00:27:53;;;;;;;23.53;22.63;;;22.30;56.10;;;;;;5015556;28;20508;-53
2023/03/20 00:30:23;;;;;;;23.77;22.67;;;22.30;56.10;;;;;;5015561;28;20449;-56
2023/03/20 00:32:51;;;;;;;25.90;24.80;;;22.30;56.10;;;;;;5015690;28;20473;-55
2023/03/20 00:35:23;;;;;;;25.07;24.00;;;22.30;56.10;;;;;;5014358;28;20509;-54
2023/03/20 00:37:51;;;;;;;23.23;22.23;;;22.30;56.00;;;;;;4995769;28;20844;-58
2023/03/20 00:40:18;;;;;;;23.73;22.73;;;22.20;55.90;;;;;;4995727;28;20486;-54
2023/03/20 00:42:50;;;;;;;23.43;22.43;;;22.20;55.90;;;;;;4995804;28;20479;-56
2023/03/20 00:45:19;;;;;;;23.33;22.43;;;22.20;55.90;;;;;;5009479;28;20469;-56
2023/03/20 00:47:50;;;;;;;22.60;21.80;;;22.20;55.90;;;;;;5015087;28;20450;-56
2023/03/20 00:50:20;;;;;;;23.43;22.53;;;22.20;55.90;;;;;;5005062;28;20871;-56
2023/03/20 00:52:47;;;;;;;22.97;22.07;;;22.20;55.90;;;;;;4995645;28;20455;-53
2023/03/20 00:55:15;;;;;;;23.27;22.27;;;22.20;55.90;;;;;;5008525;28;20560;-56
2023/03/20 00:57:49;;;;;;;22.17;21.37;;;22.20;55.90;;;;;;5015012;28;20536;-55
2023/03/20 01:00:38;;;;;;;23.00;21.90;;;22.10;55.90;;;;;;5015008;28;20450;-58
2023/03/20 01:03:12;;;;;;;22.70;21.70;;;22.10;55.80;;;;;;5015120;28;20540;-55
2023/03/20 01:05:40;;;;;;;23.13;22.13;;;22.10;55.80;;;;;;5000868;28;20465;-54
2023/03/20 01:08:15;;;;;;;22.70;21.80;;;22.10;55.80;;;;;;5014702;28;20481;-56
2023/03/20 01:10:42;;;;;;;23.60;22.60;;;22.10;55.90;;;;;;5014972;28;20961;-55
2023/03/20 01:13:19;;;;;;;22.53;21.73;;;22.10;55.80;;;;;;5015041;28;20533;-58
2023/03/20 01:15:47;;;;;;;22.57;21.70;;;22.10;55.80;;;;;;4997184;28;20831;-58
2023/03/20 01:18:15;;;;;;;23.23;22.23;;;22.10;55.80;;;;;;4994919;28;20971;-56
2023/03/20 01:20:42;;;;;;;23.97;23.00;;;22.10;55.80;;;;;;4995068;28;20482;-56
2023/03/20 01:23:09;;;;;;;22.70;21.80;;;22.00;55.80;;;;;;4994008;28;20481;-54
2023/03/20 01:25:36;;;;;;;23.17;22.27;;;22.10;55.90;;;;;;5003116;28;20549;-55
2023/03/20 01:28:11;;;;;;;22.33;21.47;;;22.10;55.90;;;;;;4994631;28;20475;-56
2023/03/20 01:30:40;;;;;;;23.13;22.10;;;22.00;55.80;;;;;;4994948;28;20534;-53
2023/03/20 01:33:13;;;;;;;24.47;23.57;;;22.00;55.90;;;;;;4994779;28;20451;-53
2023/03/20 01:35:41;;;;;;;23.90;22.70;;;22.00;55.90;;;;;;5010596;28;20509;-55
2023/03/20 01:38:12;;;;;;;24.07;23.07;;;22.00;55.90;;;;;;5014178;28;20955;-58
2023/03/20 01:40:47;;;;;;;22.40;21.50;;;22.00;56.00;;;;;;5014533;28;20517;-55
2023/03/20 01:43:17;;;;;;;22.90;21.90;;;22.10;56.10;;;;;;5014370;28;21002;-57
2023/03/20 01:45:54;;;;;;;22.80;21.90;;;22.10;56.10;;;;;;4997652;28;20474;-56
2023/03/20 01:48:24;;;;;;;23.13;22.23;;;22.10;56.00;;;;;;4994271;28;20486;-55
2023/03/20 01:50:50;;;;;;;22.90;22.03;;;22.10;56.10;;;;;;4994603;28;20481;-57
2023/03/20 01:53:21;;;;;;;23.37;22.47;;;22.10;56.10;;;;;;5004207;28;20485;-54
2023/03/20 01:55:51;;;;;;;22.67;21.77;;;22.10;56.10;;;;;;5056028;22;21021;-53
2023/03/20 01:58:22;;;;;;;22.87;21.90;;;22.10;56.10;;;;;;5025292;28;20475;-52
2023/03/20 02:00:50;;;;;;;22.87;21.97;;;22.10;56.10;;;;;;5033864;28;20476;-54
2023/03/20 02:03:19;;;;;;;23.03;22.03;;;22.10;56.10;;;;;;5023168;28;20492;-55
2023/03/20 02:05:46;;;;;;;22.93;21.83;;;22.10;56.10;;;;;;5004156;28;20505;-50
2023/03/20 02:08:21;;;;;;;22.37;21.47;;;22.10;56.10;;;;;;4994142;28;20475;-55
2023/03/20 02:10:49;;;;;;;22.80;21.97;;;22.10;56.10;;;;;;4994492;28;20489;-52
2023/03/20 02:13:17;;;;;;;23.07;22.17;;;22.10;56.10;;;;;;4993832;28;20541;-52
2023/03/20 02:16:01;;;;;;;22.20;21.40;;;22.10;56.10;;;;;;4994177;28;20462;-53
2023/03/20 02:18:28;;;;;;;23.47;22.57;;;22.00;56.00;;;;;;4993883;28;20519;-53
2023/03/20 02:21:25;;;;;;;22.73;21.83;;;22.00;56.00;;;;;;4993866;28;20485;-51
2023/03/20 02:24:46;;;;;;;22.57;21.77;;;22.00;56.00;;;;;;4981752;28;20795;-52
2023/03/20 02:27:21;;;;;;;23.10;22.10;;;22.00;56.00;;;;;;4993898;28;20978;-51
2023/03/20 02:30:30;;;;;;;22.87;21.87;;;22.00;56.00;;;;;;4993733;28;20524;-56
2023/03/20 02:33:42;;;;;;;23.30;22.40;;;22.00;56.00;;;;;;4993782;28;20576;-57
2023/03/20 02:36:55;;;;;;;23.03;22.13;;;22.00;56.00;;;;;;4993740;28;21070;-54
2023/03/20 02:39:41;;;;;;;23.13;22.23;;;22.00;56.00;;;;;;4993580;28;20847;-51
2023/03/20 02:42:17;;;;;;;24.10;22.93;;;22.00;56.10;;;;;;4974208;28;20543;-52
2023/03/20 02:44:50;;;;;;;23.60;22.70;;;21.90;55.90;;;;;;4974149;28;20530;-56
2023/03/20 02:47:23;;;;;;;23.47;22.57;;;21.90;55.90;;;;;;4973884;28;20483;-52
2023/03/20 02:49:57;;;;;;;22.97;22.07;;;21.90;55.90;;;;;;4989490;28;20561;-55
2023/03/20 02:52:33;;;;;;;22.67;21.87;;;21.90;55.90;;;;;;4993443;28;20554;-55
2023/03/20 02:55:14;;;;;;;23.93;22.90;;;21.90;55.90;;;;;;4993195;28;20521;-52
2023/03/20 02:57:51;;;;;;;23.10;22.20;;;21.90;56.00;;;;;;4993111;28;20534;-52
2023/03/20 03:00:27;;;;;;;21.93;21.13;;;21.90;56.00;;;;;;4993173;28;20537;-52
2023/03/20 03:03:01;;;;;;;22.43;21.53;;;21.90;56.00;;;;;;4993208;28;20451;-52
2023/03/20 03:05:36;;;;;;;22.97;22.07;;;21.90;56.00;;;;;;4993261;28;20466;-51
2023/03/20 03:08:05;;;;;;;23.60;22.70;;;21.90;55.90;;;;;;4992717;28;20538;-55
2023/03/20 03:10:38;;;;;;;22.80;21.80;;;21.90;56.00;;;;;;4992972;28;20566;-51
2023/03/20 03:13:10;;;;;;;23.83;22.83;;;21.90;56.00;;;;;;4993209;28;20483;-51
2023/03/20 03:15:41;;;;;;;22.83;21.93;;;21.90;56.00;;;;;;4993136;28;20474;-52
2023/03/20 03:18:14;;;;;;;22.63;21.83;;;21.90;56.00;;;;;;4992603;28;20590;-55
2023/03/20 03:20:43;;;;;;;23.10;22.10;;;21.90;56.00;;;;;;4993004;28;20501;-51
2023/03/20 03:23:18;;;;;;;22.93;21.93;;;21.90;56.00;;;;;;4993189;28;20483;-54
2023/03/20 03:25:47;;;;;;;23.77;22.73;;;21.90;56.00;;;;;;4992863;28;20558;-55
2023/03/20 03:28:23;;;;;;;22.10;21.30;;;21.90;56.00;;;;;;4992346;28;20543;-54
2023/03/20 03:30:52;;;;;;;23.43;22.53;;;21.90;56.00;;;;;;4992951;28;20577;-52
2023/03/20 03:33:23;;;;;;;22.03;21.23;;;21.90;55.90;;;;;;4992747;28;20878;-52
2023/03/20 03:35:53;;;;;;;22.73;21.83;;;21.90;56.00;;;;;;4992765;28;20550;-51
2023/03/20 03:38:31;;;;;;;22.10;21.20;;;21.90;55.90;;;;;;4992258;28;20513;-55
2023/03/20 03:41:13;;;;;;;22.60;21.70;;;21.90;55.90;;;;;;4992626;28;20816;-53
2023/03/20 03:43:48;;;;;;;22.67;21.77;;;21.90;55.90;;;;;;4992329;28;20487;-52
2023/03/20 03:46:19;;;;;;;22.80;21.90;;;21.90;55.90;;;;;;4991833;28;20537;-53
2023/03/20 03:48:51;;;;;;;21.97;21.17;;;21.90;55.90;;;;;;4992090;28;20549;-54
2023/03/20 03:51:23;;;;;;;21.87;20.97;;;21.90;55.90;;;;;;4992554;28;20478;-53
2023/03/20 03:53:55;;;;;;;22.70;21.90;;;21.90;55.90;;;;;;4992560;28;20956;-51
2023/03/20 03:56:27;;;;;;;23.03;22.13;;;21.80;55.80;;;;;;4992490;28;20510;-53
2023/03/20 03:58:58;;;;;;;21.83;21.03;;;21.80;55.80;;;;;;4972809;28;20483;-58
2023/03/20 04:01:28;;;;;;;22.57;21.67;;;21.80;55.70;;;;;;4972930;28;20466;-53
2023/03/20 04:03:59;;;;;;;24.03;22.60;;;21.80;55.70;;;;;;4973040;28;20542;-53
2023/03/20 04:06:27;;;;;;;24.70;23.70;;;21.80;55.70;;;;;;4986276;28;20467;-52
2023/03/20 04:08:54;;;;;;;22.83;22.00;;;21.80;55.70;;;;;;4992139;28;20501;-56
2023/03/20 04:11:25;;;;;;;23.43;22.43;;;21.90;55.70;;;;;;4992354;28;20451;-51
2023/03/20 04:13:52;;;;;;;22.97;22.07;;;21.80;55.60;;;;;;4992349;28;20451;-52
2023/03/20 04:16:21;;;;;;;22.67;21.73;;;21.80;55.70;;;;;;4991627;28;20471;-52
2023/03/20 04:18:48;;;;;;;23.57;22.67;;;21.80;55.70;;;;;;4992079;28;20537;-54
2023/03/20 04:21:15;;;;;;;23.40;22.50;;;21.80;55.70;;;;;;4992252;28;20450;-58
2023/03/20 04:23:42;;;;;;;23.10;22.20;;;21.80;55.70;;;;;;4992289;28;20474;-51
2023/03/20 04:26:09;;;;;;;23.00;22.10;;;21.80;55.60;;;;;;4991770;28;21059;-54
2023/03/20 04:28:37;;;;;;;23.33;22.43;;;21.80;55.70;;;;;;4991665;28;20536;-52
2023/03/20 04:31:05;;;;;;;23.03;22.13;;;21.80;55.60;;;;;;4992223;28;20586;-52
2023/03/20 04:33:32;;;;;;;23.60;22.70;;;21.80;55.70;;;;;;4992110;28;20482;-51
2023/03/20 04:35:58;;;;;;;23.20;22.20;;;21.80;55.60;;;;;;4991753;28;20505;-51
2023/03/20 04:38:26;;;;;;;22.70;21.80;;;21.80;55.60;;;;;;4991851;28;20999;-52
2023/03/20 04:40:53;;;;;;;22.97;22.00;;;21.80;55.60;;;;;;4992089;28;20531;-52
2023/03/20 04:43:20;;;;;;;22.90;21.90;;;21.80;55.60;;;;;;4992023;28;20479;-52
2023/03/20 04:45:48;;;;;;;22.80;21.93;;;21.80;55.60;;;;;;4991615;28;20562;-51
2023/03/20 04:48:15;;;;;;;23.20;22.30;;;21.80;55.60;;;;;;4991812;28;20478;-52
2023/03/20 04:50:45;;;;;;;23.50;22.60;;;21.80;55.60;;;;;;4991874;28;20514;-53
2023/03/20 04:53:12;;;;;;;23.20;22.30;;;21.80;55.60;;;;;;4991976;28;20505;-51
2023/03/20 04:55:39;;;;;;;23.27;22.37;;;21.80;55.60;;;;;;4991581;28;20513;-50
2023/03/20 04:58:05;;;;;;;22.67;21.67;;;21.80;55.60;;;;;;4993752;28;20482;-55
2023/03/20 05:00:32;;;;;;;22.90;22.00;;;21.80;55.60;;;;;;4995394;28;20481;-51
2023/03/20 05:03:01;;;;;;;24.23;23.33;;;21.70;55.50;;;;;;4995449;28;20482;-51
2023/03/20 05:05:28;;;;;;;23.33;22.40;;;21.70;55.50;;;;;;4995028;28;20533;-51
2023/03/20 05:07:55;;;;;;;22.97;21.97;;;21.70;55.50;;;;;;4995266;28;20458;-50
2023/03/20 05:10:22;;;;;;;23.00;22.10;;;21.70;55.50;;;;;;4995255;28;20482;-52
2023/03/20 05:12:49;;;;;;;22.77;21.77;;;21.70;55.50;;;;;;4996400;28;20533;-53
2023/03/20 05:15:16;;;;;;;23.27;22.10;;;21.70;55.60;;;;;;4997417;28;20471;-56
2023/03/20 05:17:43;;;;;;;23.60;22.50;;;21.60;55.90;;;;;;4998073;28;20450;-54
2023/03/20 05:20:12;;;;;;;25.20;24.00;;;21.50;56.30;;;;;;4997370;28;20540;-55
2023/03/20 05:22:39;;;;;;;23.17;22.27;;;21.50;56.70;;;;;;4997391;28;20489;-51
2023/03/20 05:25:06;;;;;;;23.90;22.90;;;21.40;56.90;;;;;;4997780;28;20491;-52
2023/03/20 05:27:33;;;;;;;24.77;23.70;;;21.40;57.00;;;;;;4998125;28;20450;-51
2023/03/20 05:30:00;;;;;;;23.90;22.90;;;21.40;57.20;;;;;;4997436;28;20521;-54
2023/03/20 05:32:27;;;;;;;23.93;22.97;;;21.40;57.20;;;;;;4997391;28;20479;-52
2023/03/20 05:34:54;;;;;;;24.70;23.60;;;21.30;57.30;;;;;;4998120;28;20502;-51
2023/03/20 05:37:22;;;;;;;24.13;23.13;;;21.30;57.40;;;;;;4997467;28;20490;-55
2023/03/20 05:39:49;;;;;;;24.23;23.23;;;21.30;58.00;;;;;;4997012;28;20875;-51
2023/03/20 05:42:16;;;;;;;23.80;22.80;;;21.30;57.30;;;;;;4997522;28;20868;-52
2023/03/20 05:44:43;;;;;;;24.47;23.27;;;21.30;57.20;;;;;;4996959;28;20458;-54
2023/03/20 05:47:10;;;;;;;25.83;24.23;;;21.40;57.40;;;;;;4996896;28;20443;-51
2023/03/20 05:49:37;;;;;;;29.77;27.77;;;21.40;58.30;;;;;;4996769;28;20991;-57
2023/03/20 05:52:04;;;;;;;27.93;26.47;;;21.30;60.90;;;;;;4995600;28;20479;-56
2023/03/20 05:54:32;;;;;;;26.87;25.37;;;21.30;60.90;;;;;;4992355;28;20490;-53
2023/03/20 05:56:59;;;;;;;28.17;26.40;;;21.30;59.70;;;;;;4991296;28;20805;-53
2023/03/20 05:59:26;;;;;;;27.60;25.43;;;21.30;59.60;;;;;;4995134;28;20529;-54
2023/03/20 06:01:52;;;;;;;27.10;25.60;;;21.30;58.80;;;;;;4995516;28;20876;-53
2023/03/20 06:04:19;;;;;;;27.70;26.20;;;21.30;58.20;;;;;;4995538;28;20871;-56
2023/03/20 06:06:46;;;;;;;26.10;24.67;;;21.30;57.10;;;;;;4995569;28;20895;-52
2023/03/20 06:09:13;;;;;;;26.63;25.10;;;21.30;56.70;;;;;;4994794;28;20941;-53
2023/03/20 06:11:41;;;;;;;25.17;23.97;;;21.30;56.10;;;;;;4995079;28;20566;-56
2023/03/20 06:14:08;;;;;;;25.87;24.57;;;21.30;55.70;;;;;;4995395;28;20994;-57
2023/03/20 06:16:35;;;;;;;27.10;25.60;;;21.20;55.20;;;;;;4995133;28;20902;-55
2023/03/20 06:19:02;;;;;;;26.10;24.80;;;21.20;54.80;;;;;;4994851;28;20891;-57
2023/03/20 06:21:29;;;;;;;27.40;26.00;;;21.20;54.60;;;;;;4995027;28;20474;-55
2023/03/20 06:23:56;;;;;;;27.20;25.90;;;21.20;54.30;;;;;;4995245;28;20486;-56
2023/03/20 06:26:23;;;;;;;27.30;26.00;;;21.20;54.10;;;;;;4994991;28;20477;-52
2023/03/20 06:28:52;;;;;;;26.93;25.50;;;21.20;53.80;;;;;;4993881;28;20486;-56
2023/03/20 06:31:18;;;;;;;26.57;25.27;;;21.20;53.60;;;;;;4993803;28;21114;-56
2023/03/20 06:33:46;;;;;;;26.50;25.20;;;21.20;53.50;;;;;;4993997;28;20983;-55
2023/03/20 06:36:13;;;;;;;26.77;25.37;;;21.10;53.10;;;;;;4994553;28;21008;-56
2023/03/20 06:38:40;;;;;;;27.17;25.97;;;21.10;53.00;;;;;;4994450;28;20848;-56
2023/03/20 06:41:07;;;;;;;26.33;24.93;;;21.10;53.00;;;;;;4994560;28;20470;-53
2023/03/20 06:43:34;;;;;;;26.83;25.60;;;21.10;52.60;;;;;;4994618;28;20447;-52
2023/03/20 06:46:02;;;;;;;26.10;24.77;;;21.10;53.00;;;;;;4994366;28;20498;-57
2023/03/20 06:48:29;;;;;;;27.40;26.00;;;21.10;52.40;;;;;;4994233;28;20529;-55
2023/03/20 06:50:56;;;;;;;26.13;24.83;;;21.00;52.10;;;;;;4994508;28;20582;-55
2023/03/20 06:53:23;;;;;;;26.73;25.33;;;21.00;51.90;;;;;;4994084;28;20490;-56
2023/03/20 06:55:50;;;;;;;26.60;25.17;;;21.00;51.80;;;;;;4993936;28;20570;-55
2023/03/20 06:58:18;;;;;;;26.20;24.90;;;21.00;51.80;;;;;;4994030;28;20489;-56
2023/03/20 07:00:45;;;;;;;26.40;25.10;;;21.00;51.70;;;;;;4994333;28;20539;-55
2023/03/20 07:03:14;;;;;;;26.20;24.83;;;20.90;51.50;;;;;;4994521;28;20676;-56
2023/03/20 07:05:42;;;;;;;26.13;24.93;;;20.90;51.50;;;;;;4994318;28;20472;-56
2023/03/20 07:08:09;;;;;;;27.73;26.43;;;20.90;51.40;;;;;;4993986;28;20542;-55
2023/03/20 07:10:36;;;;;;;25.60;24.40;;;20.90;51.20;;;;;;4994469;28;20494;-56
2023/03/20 07:13:04;;;;;;;26.37;25.07;;;20.80;51.10;;;;;;4993989;28;20553;-56
2023/03/20 07:15:31;;;;;;;25.97;24.63;;;20.90;51.10;;;;;;4993849;28;20852;-55
2023/03/20 07:17:58;;;;;;;26.93;25.63;;;20.80;51.00;;;;;;4993675;28;20478;-54
2023/03/20 07:20:26;;;;;;;26.00;24.70;;;20.80;51.00;;;;;;4993315;28;20530;-53
2023/03/20 07:22:54;;;;;;;25.87;24.57;;;20.80;50.90;;;;;;4993838;28;20498;-57
2023/03/20 07:25:21;;;;;;;25.73;24.30;;;20.80;50.90;;;;;;4994031;28;20478;-55
2023/03/20 07:27:49;;;;;;;26.87;25.53;;;20.80;50.90;;;;;;4993908;28;20453;-54
2023/03/20 07:30:16;;;;;;;25.30;24.20;;;20.80;50.80;;;;;;4993842;28;20478;-52
2023/03/20 07:32:44;;;;;;;27.00;25.30;;;20.80;50.70;;;;;;4994017;28;20538;-53
2023/03/20 07:35:12;;;;;;;24.70;23.60;;;20.80;50.70;;;;;;4993858;28;20963;-52
2023/03/20 07:37:40;;;;;;;24.70;23.60;;;20.80;50.70;;;;;;4993953;28;20450;-56
2023/03/20 07:40:08;;;;;;;25.80;24.40;;;20.70;50.50;;;;;;4994163;28;20453;-55
2023/03/20 07:42:35;;;;;;;25.60;24.50;;;20.70;50.40;;;;;;4993459;28;20475;-56
2023/03/20 07:45:02;;;;;;;25.50;24.30;;;20.70;50.30;;;;;;4993827;28;20467;-56
2023/03/20 07:47:29;;;;;;;25.03;23.93;;;20.70;50.20;;;;;;4993572;28;20861;-52
2023/03/20 07:49:56;;;;;;;25.40;24.27;;;20.70;50.20;;;;;;4993527;28;20482;-54
2023/03/20 07:52:23;;;;;;;24.57;23.37;;;20.60;50.10;;;;;;4993414;28;20494;-52
2023/03/20 07:54:51;;;;;;;25.47;24.33;;;20.60;50.00;;;;;;4993009;28;20446;-55
2023/03/20 07:57:18;;;;;;;25.30;24.00;;;20.60;49.90;;;;;;5034291;22;20585;-64
2023/03/20 07:59:45;;;;;;;25.60;24.40;;;20.60;49.80;;;;;;5011850;28;20469;-64
2023/03/20 08:02:14;;;;;;;25.33;24.03;;;20.60;49.60;;;;;;5012022;28;20598;-64
2023/03/20 08:04:41;;;;;;;24.67;23.57;;;20.50;49.60;;;;;;5011999;28;20437;-64
2023/03/20 08:07:08;;;;;;;24.90;23.80;;;20.50;49.50;;;;;;5011953;28;20466;-64
2023/03/20 08:09:36;;;;;;;24.50;23.50;;;20.50;49.50;;;;;;5011882;28;20500;-62
2023/03/20 08:12:04;;;;;;;25.27;24.17;;;20.50;49.40;;;;;;5011840;28;20517;-64
2023/03/20 08:14:31;;;;;;;25.17;23.87;;;20.50;49.20;;;;;;5012083;28;20524;-64
2023/03/20 08:16:58;;;;;;;24.43;23.23;;;20.40;49.20;;;;;;5011927;28;20504;-62
2023/03/20 08:19:25;;;;;;;25.20;24.00;;;20.40;49.10;;;;;;5011700;28;20478;-62
2023/03/20 08:21:52;;;;;;;24.50;23.40;;;20.40;48.90;;;;;;5011753;28;20449;-63
2023/03/20 08:24:19;;;;;;;24.43;23.40;;;20.40;48.90;;;;;;5012075;28;20528;-62
2023/03/20 08:26:46;;;;;;;25.27;24.07;;;20.30;48.60;;;;;;5011719;28;21042;-63
2023/03/20 08:29:17;;;;;;;26.60;25.00;;;20.30;48.60;;;;;;5011689;28;21184;-64
2023/03/20 08:31:44;;;;;;;25.77;24.53;;;20.30;48.60;;;;;;5011987;28;21006;-63
2023/03/20 08:34:11;;;;;;;25.37;23.87;;;20.30;48.60;;;;;;5015738;28;20529;-63
2023/03/20 08:36:39;;;;;;;25.50;24.10;;;20.30;48.60;;;;;;5015482;28;20497;-64
2023/03/20 08:39:07;;;;;;;25.60;24.30;;;20.30;48.60;;;;;;5015321;28;20896;-62
2023/03/20 08:41:34;;;;;;;25.27;23.60;;;20.20;48.40;;;;;;5015531;28;20449;-63
2023/03/20 08:44:01;;;;;;;26.43;25.23;;;20.20;48.30;;;;;;5015577;28;20876;-63
2023/03/20 08:46:30;;;;;;;26.50;25.20;;;20.20;48.00;;;;;;5015366;28;20560;-65
2023/03/20 08:48:57;;;;;;;24.70;23.60;;;20.10;47.80;;;;;;5015186;28;20500;-65
2023/03/20 08:51:24;;;;;;;26.17;24.47;;;20.10;47.70;;;;;;5015303;28;20517;-63
2023/03/20 08:53:51;;;;;;;25.40;24.10;;;20.10;47.50;;;;;;5015225;28;20532;-63
2023/03/20 08:56:18;;;;;;;25.97;24.53;;;20.10;47.60;;;;;;5015209;28;20565;-64
2023/03/20 08:58:45;;;;;;;26.00;24.80;;;20.00;47.50;;;;;;5015153;28;20485;-63
2023/03/20 09:01:14;;;;;;;26.37;24.97;;;20.00;47.50;;;;;;5015190;28;20504;-63
2023/03/20 09:03:42;;;;;;;25.63;24.53;;;20.00;47.20;;;;;;5015098;28;20500;-63
2023/03/20 09:06:10;;;;;;;25.13;24.03;;;20.00;47.20;;;;;;5015036;28;20991;-62
2023/03/20 09:08:37;;;;;;;26.03;24.57;;;19.90;47.20;;;;;;5014851;28;20819;-63
2023/03/20 09:11:05;;;;;;;25.77;24.50;;;19.90;47.10;;;;;;5014923;28;20577;-63
2023/03/20 09:13:32;;;;;;;25.40;24.20;;;19.90;47.00;;;;;;5014858;28;20533;-63
2023/03/20 09:15:59;;;;;;;24.57;23.47;;;19.80;46.80;;;;;;5014770;28;20544;-64
2023/03/20 09:18:26;;;;;;;25.97;24.77;;;19.80;46.80;;;;;;5014474;28;20944;-64
2023/03/20 09:20:55;;;;;;;24.63;23.33;;;19.80;46.70;;;;;;5014851;28;20530;-63
2023/03/20 09:23:22;;;;;;;25.10;23.90;;;19.80;46.70;;;;;;5014718;28;20452;-62
2023/03/20 09:25:49;;;;;;;24.70;23.60;;;19.70;46.60;;;;;;5014604;28;20557;-63
2023/03/20 09:28:16;;;;;;;24.87;23.57;;;19.80;46.90;;;;;;5014419;28;20473;-63
2023/03/20 09:30:44;;;;;;;25.07;23.97;;;19.80;46.80;;;;;;5014688;28;20564;-64
2023/03/20 09:33:13;;;;;;;25.07;23.73;;;19.70;46.70;;;;;;5014555;28;20454;-63
2023/03/20 09:35:40;;;;;;;24.33;23.30;;;19.70;46.70;;;;;;5014400;28;20862;-62
2023/03/20 09:38:08;;;;;;;25.00;23.90;;;19.70;46.70;;;;;;5014263;28;20877;-63
2023/03/20 09:40:51;;;;;;;24.50;23.30;;;19.70;46.70;;;;;;5014311;28;20450;-63
2023/03/20 09:43:28;;;;;;;24.70;23.43;;;19.70;46.60;;;;;;5013951;28;20441;-63
2023/03/20 09:46:05;;;;;;;25.30;24.07;;;19.60;46.50;;;;;;5013993;28;20889;-61
2023/03/20 09:48:37;;;;;;;24.50;23.40;;;19.60;46.40;;;;;;5014193;28;20532;-62
2023/03/20 09:51:15;;;;;;;24.80;23.67;;;19.60;46.30;;;;;;5014263;28;20870;-63
2023/03/20 09:53:47;;;;;;;24.90;23.67;;;19.50;46.10;;;;;;5014149;28;20949;-63
2023/03/20 09:56:17;;;;;;;24.70;23.43;;;19.50;45.90;;;;;;5014010;28;20913;-62
2023/03/20 09:58:52;;;;;;;24.50;23.40;;;19.50;45.80;;;;;;5013813;28;20488;-64
2023/03/20 10:01:21;;;;;;;24.60;23.60;;;19.50;45.80;;;;;;5014038;28;20521;-64
2023/03/20 10:03:52;;;;;;;25.33;24.23;;;19.50;45.60;;;;;;5014188;28;20860;-63
2023/03/20 10:06:19;;;;;;;25.40;23.93;;;19.40;45.30;;;;;;5013927;28;20524;-63
2023/03/20 10:08:47;;;;;;;25.27;23.60;;;19.40;45.00;;;;;;5013705;28;20446;-63
2023/03/20 10:11:36;;;;;;;24.50;23.37;;;19.40;45.00;;;;;;5013812;28;20573;-62
2023/03/20 10:14:17;;;;;;;24.30;23.30;;;19.30;44.90;;;;;;4991660;28;20532;-61
2023/03/20 10:17:00;;;;;;;24.57;23.47;;;19.30;44.90;;;;;;5013609;28;20979;-63
2023/03/20 10:19:29;;;;;;;24.57;23.47;;;19.30;44.90;;;;;;5013676;28;20455;-60
2023/03/20 10:22:11;;;;;;;25.27;24.00;;;19.30;45.20;;;;;;5013480;28;20966;-63
2023/03/20 10:24:44;;;;;;;24.70;23.50;;;19.30;45.20;;;;;;5013597;28;20488;-63
2023/03/20 10:27:18;;;;;;;24.33;22.93;;;19.30;45.20;;;;;;5013411;28;20556;-62
2023/03/20 10:29:54;;;;;;;24.60;23.50;;;19.30;45.10;;;;;;5013490;28;20827;-61
2023/03/20 10:32:26;;;;;;;24.60;23.50;;;19.30;44.90;;;;;;5013327;28;20519;-63
2023/03/20 10:35:08;;;;;;;24.37;23.17;;;19.20;44.80;;;;;;5013571;28;20450;-62
2023/03/20 10:37:52;;;;;;;25.13;24.03;;;19.30;44.80;;;;;;5013284;28;20537;-63
2023/03/20 10:40:30;;;;;;;24.57;23.57;;;19.20;44.60;;;;;;5013232;28;20863;-62
2023/03/20 10:43:01;;;;;;;24.70;23.70;;;19.20;44.70;;;;;;5013397;28;20923;-62
2023/03/20 10:45:40;;;;;;;24.73;23.70;;;19.10;44.60;;;;;;5013159;28;20493;-62
2023/03/20 10:48:15;;;;;;;25.37;24.03;;;19.10;44.50;;;;;;5012923;28;20461;-62
2023/03/20 10:50:46;;;;;;;25.83;24.73;;;19.10;44.50;;;;;;5013154;28;20760;-63
2023/03/20 10:53:26;;;;;;;25.80;24.60;;;19.10;44.60;;;;;;5013011;28;20485;-63
2023/03/20 10:55:57;;;;;;;24.93;23.83;;;19.10;44.60;;;;;;5012818;28;20556;-62
2023/03/20 10:58:27;;;;;;;24.70;23.67;;;19.10;44.60;;;;;;5012840;28;20453;-61
2023/03/20 11:00:55;;;;;;;25.60;24.40;;;19.10;44.50;;;;;;5012882;28;20437;-63
2023/03/20 11:03:24;;;;;;;25.20;24.00;;;19.10;44.60;;;;;;5013021;28;20513;-62
2023/03/20 11:05:56;;;;;;;26.17;24.63;;;19.00;44.50;;;;;;5012819;28;20494;-63
2023/03/20 11:08:25;;;;;;;24.90;23.67;;;18.90;44.40;;;;;;5012651;28;20488;-61
2023/03/20 11:11:02;;;;;;;25.50;24.40;;;18.90;44.50;;;;;;5012731;28;20504;-63
2023/03/20 11:13:32;;;;;;;24.23;23.13;;;18.90;44.70;;;;;;5013079;28;20850;-62
2023/03/20 11:16:10;;;;;;;24.83;23.50;;;18.90;44.80;;;;;;5012644;28;20504;-62
2023/03/20 11:18:40;;;;;;;24.90;23.80;;;18.90;45.00;;;;;;5012494;28;20449;-63
2023/03/20 11:21:14;;;;;;;24.53;23.17;;;18.90;45.00;;;;;;5012483;28;20529;-62
2023/03/20 11:23:42;;;;;;;24.37;23.17;;;18.90;45.00;;;;;;5012518;28;20446;-62
2023/03/20 11:26:15;;;;;;;25.63;24.53;;;18.90;44.90;;;;;;5012490;28;20504;-63
2023/03/20 11:28:47;;;;;;;25.40;24.30;;;18.90;44.80;;;;;;5012343;28;20552;-63
2023/03/20 11:31:19;;;;;;;25.23;24.13;;;18.90;44.80;;;;;;5012438;28;20876;-63
2023/03/20 11:33:51;;;;;;;25.27;24.10;;;18.90;45.00;;;;;;5012391;28;20478;-63
2023/03/20 11:36:24;;;;;;;26.00;24.73;;;18.90;45.00;;;;;;5012171;28;20473;-63
2023/03/20 11:38:53;;;;;;;26.17;24.77;;;18.90;45.00;;;;;;5012151;28;20476;-62
2023/03/20 11:41:25;;;;;;;24.80;23.70;;;18.80;44.80;;;;;;5012229;28;20478;-64
2023/03/20 11:43:52;;;;;;;26.17;24.80;;;18.80;44.80;;;;;;5012336;28;20473;-64
2023/03/20 11:46:22;;;;;;;25.07;23.50;;;18.80;44.80;;;;;;5012156;28;20520;-63
2023/03/20 11:49:04;;;;;;;25.27;24.20;;;18.80;44.70;;;;;;5012200;28;20814;-63
2023/03/20 11:51:33;;;;;;;26.00;24.67;;;18.70;44.70;;;;;;5012195;28;21017;-64
2023/03/20 11:54:03;;;;;;;24.93;23.73;;;18.80;44.90;;;;;;5012091;28;20970;-63
2023/03/20 11:56:34;;;;;;;24.50;23.43;;;18.80;45.00;;;;;;5012322;28;20925;-64
2023/03/20 11:59:04;;;;;;;25.73;24.50;;;18.70;45.40;;;;;;5012015;28;20454;-64
2023/03/20 12:01:43;;;;;;;25.00;23.90;;;18.70;45.00;;;;;;5012084;28;20952;-64
2023/03/20 12:04:15;;;;;;;24.70;23.60;;;18.70;45.00;;;;;;5011928;28;20958;-64
2023/03/20 12:06:54;;;;;;;25.67;24.30;;;18.70;45.20;;;;;;5011596;28;20499;-64
2023/03/20 12:09:41;;;;;;;25.17;24.03;;;18.70;45.30;;;;;;5011859;28;20537;-64
2023/03/20 12:12:19;;;;;;;24.30;23.30;;;18.70;45.50;;;;;;5011822;28;20565;-64
2023/03/20 12:14:54;;;;;;;25.90;24.33;;;18.70;45.60;;;;;;5012100;28;20453;-64
2023/03/20 12:17:42;;;;;;;25.03;23.93;;;18.70;45.60;;;;;;5011662;28;20504;-63
2023/03/20 12:20:23;;;;;;;25.00;23.80;;;18.60;45.60;;;;;;5011777;28;20469;-64
2023/03/20 12:22:56;;;;;;;24.50;23.20;;;18.60;45.60;;;;;;5011866;28;20438;-63
2023/03/20 12:25:27;;;;;;;24.20;23.10;;;18.60;45.60;;;;;;5011756;28;20478;-63
2023/03/20 12:28:05;;;;;;;24.37;23.20;;;18.70;45.80;;;;;;5011670;28;20805;-63
2023/03/20 12:30:45;;;;;;;25.13;24.13;;;18.70;45.90;;;;;;5011805;28;20532;-63
2023/03/20 12:33:18;;;;;;;24.13;23.13;;;18.70;45.90;;;;;;5011640;28;21045;-63
2023/03/20 12:35:49;;;;;;;24.70;23.60;;;18.60;45.90;;;;;;5011700;28;20494;-64
2023/03/20 12:38:25;;;;;;;25.73;24.43;;;18.60;45.90;;;;;;5011814;28;20536;-63
2023/03/20 12:40:58;;;;;;;25.60;24.40;;;18.60;46.00;;;;;;5011612;28;20529;-63
2023/03/20 12:43:29;;;;;;;25.37;24.23;;;18.60;46.10;;;;;;5011704;28;20870;-63
2023/03/20 12:46:04;;;;;;;24.40;23.33;;;18.60;46.10;;;;;;5011514;28;20545;-63